Time;durP1;ratioP1;P1;durP2;ratioP2;P2;SDS_P1;SDS_P2;PMS_P1;PMS_P2;Temp;Humidity;BMP_temperature;BMP_pressure;BME280_temperature;BME280_humidity;BME280_pressure;Samples;Min_cycle;Max_cycle;Signal;HPM_P1;HPM_P2
2021/11/21 00:00:48;;;;;;;3.75;2.58;;;;;;;4.46;100.00;102092.69;6157202;23;20032;-83
2021/11/21 00:03:15;;;;;;;8.93;2.20;;;;;;;4.49;100.00;102097.81;6133049;23;20021;-83
2021/11/21 00:05:43;;;;;;;9.88;2.60;;;;;;;4.46;100.00;102103.34;6131307;23;20009;-81
2021/11/21 00:08:09;;;;;;;8.05;2.83;;;;;;;4.45;100.00;102107.84;6157005;23;20005;-83
2021/11/21 00:10:35;;;;;;;7.45;3.20;;;;;;;4.46;100.00;102114.00;6131585;23;20008;-83
2021/11/21 00:13:04;;;;;;;6.25;2.30;;;;;;;4.39;100.00;102109.09;6132591;23;20009;-82
2021/11/21 00:15:31;;;;;;;12.57;2.65;;;;;;;4.40;100.00;102109.94;6156246;23;20017;-84
2021/11/21 00:17:57;;;;;;;8.85;2.72;;;;;;;4.42;100.00;102108.03;6157035;23;20005;-84
2021/11/21 00:20:28;;;;;;;11.30;2.33;;;;;;;4.36;100.00;102111.09;6183360;23;20020;-84
2021/11/21 00:22:54;;;;;;;11.75;1.98;;;;;;;4.28;100.00;102110.75;6132111;23;20088;-84
2021/11/21 00:25:20;;;;;;;6.70;1.92;;;;;;;4.29;100.00;102112.47;6157219;23;20083;-84
2021/11/21 00:27:46;;;;;;;16.80;2.40;;;;;;;4.24;100.00;102115.44;6131577;23;20099;-83
2021/11/21 00:30:12;;;;;;;12.95;2.90;;;;;;;4.22;100.00;102114.69;6156873;23;20001;-83
2021/11/21 00:32:42;;;;;;;10.40;2.22;;;;;;;4.25;100.00;102122.47;6156576;23;20060;-82
2021/11/21 00:35:08;;;;;;;11.88;2.20;;;;;;;4.24;100.00;102119.91;6156461;23;20095;-82
2021/11/21 00:37:36;;;;;;;13.05;2.35;;;;;;;4.28;100.00;102121.41;6131299;23;20037;-85
2021/11/21 00:40:03;;;;;;;11.27;2.58;;;;;;;4.25;100.00;102126.94;6157231;23;20001;-83
2021/11/21 00:42:32;;;;;;;6.80;1.80;;;;;;;4.18;100.00;102126.47;6131970;23;20009;-83
2021/11/21 00:45:03;;;;;;;15.13;3.22;;;;;;;4.12;100.00;102126.88;6183122;23;20433;-87
2021/11/21 00:47:29;;;;;;;9.18;2.80;;;;;;;4.06;100.00;102127.28;6156101;23;20487;-85
2021/11/21 00:49:55;;;;;;;13.52;2.65;;;;;;;3.91;100.00;102102.50;6131660;23;20001;-85
2021/11/21 00:52:23;;;;;;;8.25;2.17;;;;;;;3.97;100.00;102123.44;6132203;23;20005;-83
2021/11/21 00:54:52;;;;;;;13.45;2.40;;;;;;;3.88;100.00;102114.22;6131358;23;20063;-83
2021/11/21 00:57:18;;;;;;;7.60;2.72;;;;;;;3.75;100.00;102089.34;6157299;23;20055;-85
2021/11/21 00:59:44;;;;;;;10.57;2.30;;;;;;;3.88;100.00;102110.69;6182153;23;20013;-83
2021/11/21 01:02:11;;;;;;;11.73;2.13;;;;;;;3.85;100.00;102114.41;6156224;23;20028;-84
2021/11/21 01:04:42;;;;;;;12.85;2.38;;;;;;;3.88;100.00;102108.03;6182789;23;20009;-82
2021/11/21 01:07:09;;;;;;;8.18;2.28;;;;;;;3.92;100.00;102120.22;6107551;23;20425;-86
2021/11/21 01:09:35;;;;;;;16.00;2.80;;;;;;;3.88;100.00;102116.88;6131519;23;20009;-82
2021/11/21 01:12:01;;;;;;;7.72;2.08;;;;;;;3.85;100.00;102116.22;6181050;23;20063;-83
2021/11/21 01:14:29;;;;;;;6.32;1.63;;;;;;;3.83;100.00;102121.63;6131524;23;20037;-84
2021/11/21 01:16:57;;;;;;;17.65;2.53;;;;;;;3.80;100.00;102124.50;6106851;23;20397;-84
2021/11/21 01:19:26;;;;;;;6.13;1.48;;;;;;;3.74;100.00;102123.09;6131858;23;20005;-87
2021/11/21 01:21:52;;;;;;;11.35;2.28;;;;;;;3.70;100.00;102124.22;6155728;23;20472;-83
2021/11/21 01:24:18;;;;;;;10.25;2.10;;;;;;;3.65;100.00;102122.81;6156281;23;20001;-83
2021/11/21 01:26:52;;;;;;;6.63;2.35;;;;;;;3.68;100.00;102117.31;6131057;23;20009;-83
2021/11/21 01:29:34;;;;;;;5.13;1.63;;;;;;;3.70;100.00;102123.38;6131851;23;20078;-83
2021/11/21 01:35:44;;;;;;;10.18;2.03;;;;;;;3.53;100.00;102112.00;6186560;23;20017;-83
2021/11/21 01:38:50;;;;;;;;;;;;;;;;;;;;;
2021/11/21 01:41:47;;;;;;;7.22;1.70;;;;;;;3.58;100.00;102101.09;6118686;23;20009;-83
2021/11/21 01:44:21;;;;;;;16.63;2.10;;;;;;;3.73;100.00;102120.50;6111979;23;20013;-84
2021/11/21 01:46:56;;;;;;;4.90;1.83;;;;;;;3.72;100.00;102122.31;6157438;23;20020;-83
2021/11/21 01:49:22;;;;;;;13.10;1.95;;;;;;;3.87;100.00;102133.81;6154903;23;20036;-83
2021/11/21 01:51:53;;;;;;;5.32;1.20;;;;;;;3.85;100.00;102125.06;6156540;23;19997;-83
2021/11/21 01:54:19;;;;;;;7.90;1.50;;;;;;;3.88;100.00;102119.53;6155822;23;20013;-83
2021/11/21 01:56:45;;;;;;;10.43;2.90;;;;;;;3.99;100.00;102125.97;6154964;23;20005;-82
2021/11/21 01:59:11;;;;;;;12.88;2.20;;;;;;;3.96;100.00;102122.56;6130845;23;20001;-87
2021/11/21 02:01:37;;;;;;;11.32;2.25;;;;;;;3.90;100.00;102127.44;6154925;23;20035;-82
2021/11/21 02:04:03;;;;;;;7.82;1.83;;;;;;;3.86;100.00;102144.53;6181699;23;20013;-87
2021/11/21 02:06:29;;;;;;;11.85;2.08;;;;;;;3.74;100.00;102127.56;6157227;23;20029;-82
2021/11/21 02:08:56;;;;;;;11.35;1.95;;;;;;;3.77;100.00;102126.50;6132074;23;20009;-82
2021/11/21 02:11:24;;;;;;;7.18;2.00;;;;;;;3.70;100.00;102131.34;6107664;23;20044;-84
2021/11/21 02:13:50;;;;;;;9.63;2.08;;;;;;;3.65;100.00;102130.78;6107491;23;20099;-86
2021/11/21 02:16:17;;;;;;;10.02;2.13;;;;;;;3.62;100.00;102137.16;6132200;23;20005;-82
2021/11/21 02:18:45;;;;;;;12.32;1.98;;;;;;;3.59;100.00;102131.19;6108207;23;20005;-84
2021/11/21 02:21:11;;;;;;;19.77;4.75;;;;;;;3.57;100.00;102141.91;6132592;23;20005;-84
2021/11/21 02:23:37;;;;;;;9.95;2.22;;;;;;;3.52;100.00;102123.59;6131170;23;20036;-82
2021/11/21 02:26:03;;;;;;;7.25;2.22;;;;;;;3.58;100.00;102135.66;6129704;23;20005;-85
2021/11/21 02:28:36;;;;;;;10.82;2.30;;;;;;;3.60;100.00;102135.53;6130672;23;20019;-83
2021/11/21 02:31:01;;;;;;;5.53;2.08;;;;;;;3.59;100.00;102117.88;6132890;23;20012;-82
2021/11/21 02:33:27;;;;;;;11.05;2.10;;;;;;;3.61;100.00;102126.63;6155938;23;20011;-89
2021/11/21 02:35:57;;;;;;;6.35;2.05;;;;;;;3.56;100.00;102123.41;6132316;23;20508;-88
2021/11/21 02:38:24;;;;;;;12.82;2.13;;;;;;;3.55;100.00;102127.00;6157116;23;20005;-84
2021/11/21 02:40:50;;;;;;;11.10;2.53;;;;;;;3.60;100.00;102122.25;6108159;23;20009;-83
2021/11/21 02:43:18;;;;;;;22.45;1.98;;;;;;;3.68;100.00;102133.28;6132116;23;20433;-84
2021/11/21 02:45:45;;;;;;;11.23;2.75;;;;;;;3.70;100.00;102134.00;6108214;23;20065;-84
2021/11/21 02:48:11;;;;;;;9.25;1.80;;;;;;;3.70;100.00;102147.31;6107947;23;20020;-87
2021/11/21 02:50:36;;;;;;;11.13;2.58;;;;;;;3.71;100.00;102149.88;6132125;23;20087;-86
2021/11/21 02:53:03;;;;;;;14.68;2.00;;;;;;;3.66;100.00;102148.47;6132088;23;20031;-84
2021/11/21 02:55:31;;;;;;;15.23;2.20;;;;;;;3.58;100.00;102148.97;6156686;23;20001;-83
2021/11/21 02:57:58;;;;;;;14.38;1.92;;;;;;;3.51;100.00;102148.47;6132068;23;20071;-88
2021/11/21 03:00:24;;;;;;;8.15;1.80;;;;;;;3.53;100.00;102149.22;6107532;23;20019;-83
2021/11/21 03:02:55;;;;;;;12.38;2.10;;;;;;;3.38;100.00;102126.25;6156533;23;20009;-84
2021/11/21 03:05:21;;;;;;;4.50;1.17;;;;;;;3.55;100.00;102145.63;6107799;23;20009;-84
2021/11/21 03:07:48;;;;;;;8.80;2.53;;;;;;;3.61;100.00;102153.22;6132052;23;20017;-83
2021/11/21 03:10:18;;;;;;;6.63;1.13;;;;;;;3.68;100.00;102147.44;6156522;23;20139;-84
2021/11/21 03:12:53;;;;;;;25.17;2.50;;;;;;;3.73;100.00;102142.69;6132574;23;20005;-84
2021/11/21 03:15:19;;;;;;;2.90;1.10;;;;;;;3.69;100.00;102151.78;6106828;23;20032;-84
2021/11/21 03:17:45;;;;;;;6.10;1.60;;;;;;;3.59;100.00;102147.13;6155549;23;20009;-84
2021/11/21 03:20:13;;;;;;;12.40;1.80;;;;;;;3.62;100.00;102160.25;6156195;23;20036;-83
2021/11/21 03:22:40;;;;;;;9.50;1.63;;;;;;;3.60;100.00;102157.69;6156629;23;20452;-84
2021/11/21 03:25:07;;;;;;;5.38;1.40;;;;;;;3.60;100.00;102159.47;6131765;23;20033;-83
2021/11/21 03:27:33;;;;;;;10.73;1.63;;;;;;;3.62;100.00;102162.91;6130453;23;20136;-84
2021/11/21 03:29:58;;;;;;;8.27;1.70;;;;;;;3.65;100.00;102155.59;6155353;23;20028;-84
2021/11/21 03:32:24;;;;;;;8.68;1.50;;;;;;;3.70;100.00;102152.63;6156625;23;20032;-83
2021/11/21 03:34:50;;;;;;;16.38;1.60;;;;;;;3.81;100.00;102155.50;6156412;23;20017;-83
2021/11/21 03:37:16;;;;;;;17.08;1.67;;;;;;;3.87;100.00;102155.09;6107658;23;20012;-84
2021/11/21 03:39:42;;;;;;;11.63;1.85;;;;;;;3.90;100.00;102149.56;6156695;23;20508;-84
2021/11/21 03:42:07;;;;;;;7.90;1.83;;;;;;;3.98;100.00;102151.75;6131948;23;20016;-84
2021/11/21 03:44:33;;;;;;;10.52;1.70;;;;;;;3.99;100.00;102152.59;6104917;23;20139;-83
2021/11/21 03:46:59;;;;;;;11.02;1.70;;;;;;;3.88;100.00;102140.81;6156374;23;20076;-83
2021/11/21 03:49:25;;;;;;;2.97;1.20;;;;;;;3.83;100.00;102142.91;6156750;23;20009;-84
2021/11/21 03:51:50;;;;;;;5.88;1.17;;;;;;;3.80;100.00;102150.25;6156541;23;20021;-82
2021/11/21 03:54:16;;;;;;;10.43;2.30;;;;;;;3.83;100.00;102153.56;6156668;23;20396;-85
2021/11/21 03:56:45;;;;;;;14.45;1.85;;;;;;;3.85;100.00;102154.31;6156434;23;20012;-83
2021/11/21 03:59:11;;;;;;;13.27;1.88;;;;;;;3.78;100.00;102144.16;6155074;23;20001;-82
2021/11/21 04:01:36;;;;;;;8.13;1.40;;;;;;;3.79;100.00;102153.88;6131799;23;20097;-84
2021/11/21 04:04:05;;;;;;;9.25;1.90;;;;;;;3.78;100.00;102149.50;6130270;23;20005;-84
2021/11/21 04:06:32;;;;;;;10.90;2.35;;;;;;;3.71;100.00;102139.25;6156983;23;20008;-84
2021/11/21 04:08:58;;;;;;;12.07;1.80;;;;;;;3.69;100.00;102140.28;6155774;23;20329;-84
2021/11/21 04:11:24;;;;;;;5.60;1.60;;;;;;;3.72;100.00;102140.94;6131349;23;20452;-83
2021/11/21 04:13:49;;;;;;;8.60;1.52;;;;;;;3.71;100.00;102144.56;6181817;23;20005;-82
2021/11/21 04:16:15;;;;;;;8.93;1.90;;;;;;;3.72;100.00;102151.59;6130066;23;20452;-84
2021/11/21 04:18:42;;;;;;;5.47;1.40;;;;;;;3.64;100.00;102147.72;6130921;23;20068;-84
2021/11/21 04:21:09;;;;;;;11.65;1.70;;;;;;;3.62;100.00;102157.59;6155550;23;20005;-83
2021/11/21 04:23:35;;;;;;;11.15;1.80;;;;;;;3.61;100.00;102163.88;6105373;23;20008;-84
2021/11/21 04:26:01;;;;;;;12.95;1.52;;;;;;;3.53;100.00;102167.00;6131680;23;20029;-84
2021/11/21 04:28:27;;;;;;;5.50;1.77;;;;;;;3.56;100.00;102163.31;6181210;23;20016;-84
2021/11/21 04:30:54;;;;;;;11.45;1.80;;;;;;;3.55;100.00;102166.88;6182750;23;20123;-84
2021/11/21 04:33:21;;;;;;;9.00;1.90;;;;;;;3.53;100.00;102157.22;6155781;23;20451;-83
2021/11/21 04:35:47;;;;;;;8.23;1.55;;;;;;;3.55;100.00;102167.78;6130900;23;20017;-84
2021/11/21 04:38:12;;;;;;;15.40;2.10;;;;;;;3.52;100.00;102152.84;6106922;23;20443;-84
2021/11/21 04:40:38;;;;;;;10.88;1.67;;;;;;;3.49;100.00;102144.19;6155762;23;20001;-82
2021/11/21 04:43:07;;;;;;;13.98;1.80;;;;;;;3.49;100.00;102152.16;6155938;23;20012;-84
2021/11/21 04:45:32;;;;;;;10.55;1.77;;;;;;;3.48;100.00;102153.97;6181854;23;20067;-83
2021/11/21 04:47:58;;;;;;;7.38;1.42;;;;;;;3.41;100.00;102147.31;6156142;23;20005;-84
2021/11/21 04:50:23;;;;;;;9.25;1.98;;;;;;;3.35;100.00;102150.38;6155253;23;20488;-86
2021/11/21 04:52:49;;;;;;;8.77;1.80;;;;;;;3.32;100.00;102147.06;6155504;23;20075;-84
2021/11/21 04:55:15;;;;;;;13.73;1.90;;;;;;;3.26;100.00;102145.63;6131477;23;20027;-84
2021/11/21 04:57:42;;;;;;;13.25;1.77;;;;;;;3.09;100.00;102142.19;6155616;23;20334;-84
2021/11/21 05:00:15;;;;;;;7.95;1.67;;;;;;;3.06;100.00;102153.00;6155597;23;20005;-84
2021/11/21 05:02:41;;;;;;;7.97;1.42;;;;;;;3.02;100.00;102166.59;6131605;23;20008;-85
2021/11/21 05:05:08;;;;;;;9.60;1.50;;;;;;;3.08;100.00;102172.38;6131237;23;20013;-84
2021/11/21 05:07:34;;;;;;;8.35;1.50;;;;;;;3.19;100.00;102157.59;6155962;23;20055;-84
2021/11/21 05:09:59;;;;;;;13.23;1.65;;;;;;;3.21;100.00;102156.56;6130723;23;20012;-83
2021/11/21 05:12:25;;;;;;;8.88;1.73;;;;;;;3.23;100.00;102149.34;6155634;23;20011;-85
2021/11/21 05:14:53;;;;;;;13.57;2.25;;;;;;;3.38;100.00;102154.66;6130731;23;20041;-84
2021/11/21 05:17:18;;;;;;;13.93;1.67;;;;;;;3.45;100.00;102138.22;6155600;23;20032;-84
2021/11/21 05:19:44;;;;;;;4.75;1.73;;;;;;;3.61;100.00;102150.56;6155309;23;20004;-84
2021/11/21 05:22:10;;;;;;;16.58;1.80;;;;;;;3.57;100.00;102149.03;6155469;23;20448;-83
2021/11/21 05:24:35;;;;;;;11.55;1.80;;;;;;;3.62;100.00;102152.25;6181731;23;20473;-84
2021/11/21 05:27:01;;;;;;;6.82;1.33;;;;;;;3.54;100.00;102136.78;6106475;23;20009;-83
2021/11/21 05:29:26;;;;;;;13.15;1.58;;;;;;;3.50;100.00;102144.13;6155517;23;20005;-83
2021/11/21 05:31:52;;;;;;;13.02;1.80;;;;;;;3.48;100.00;102134.53;6130910;23;20009;-82
2021/11/21 05:34:18;;;;;;;13.20;1.60;;;;;;;3.60;100.00;102146.19;6155046;23;20076;-85
2021/11/21 05:36:44;;;;;;;16.17;1.63;;;;;;;3.73;100.00;102139.13;6155667;23;20005;-83
2021/11/21 05:39:10;;;;;;;15.18;1.55;;;;;;;3.88;100.00;102134.66;6155551;23;20013;-83
2021/11/21 05:41:36;;;;;;;14.45;1.67;;;;;;;4.04;100.00;102138.03;6157859;23;20009;-83
2021/11/21 05:44:02;;;;;;;10.68;1.52;;;;;;;4.02;100.00;102121.28;6157105;23;20004;-83
2021/11/21 05:46:27;;;;;;;16.80;1.77;;;;;;;4.13;100.00;102125.94;6132024;23;20023;-83
2021/11/21 05:48:53;;;;;;;11.18;1.60;;;;;;;4.20;100.00;102137.88;6132574;23;20425;-83
2021/11/21 05:51:19;;;;;;;7.82;2.50;;;;;;;4.16;100.00;102139.91;6183441;23;20013;-83
2021/11/21 05:53:45;;;;;;;14.13;1.58;;;;;;;4.23;100.00;102140.34;6155571;23;20315;-82
2021/11/21 05:56:13;;;;;;;14.00;2.53;;;;;;;4.23;100.00;102142.16;6107906;23;20009;-82
2021/11/21 05:58:39;;;;;;;9.43;1.50;;;;;;;4.25;100.00;102150.91;6132554;23;20013;-82
2021/11/21 06:01:05;;;;;;;4.38;1.00;;;;;;;4.21;100.00;102155.56;6157466;23;20016;-84
2021/11/21 06:03:30;;;;;;;10.35;1.42;;;;;;;4.28;100.00;102154.19;6157451;23;20005;-83
2021/11/21 06:05:56;;;;;;;12.15;1.50;;;;;;;4.18;100.00;102138.00;6132447;23;20009;-83
2021/11/21 06:08:22;;;;;;;5.85;1.25;;;;;;;4.25;100.00;102154.41;6132076;23;20008;-83
2021/11/21 06:10:47;;;;;;;6.95;1.38;;;;;;;4.30;100.00;102151.44;6132603;23;20027;-83
2021/11/21 06:13:13;;;;;;;7.65;1.63;;;;;;;4.27;100.00;102149.84;6132466;23;20005;-84
2021/11/21 06:15:39;;;;;;;9.07;1.70;;;;;;;4.22;100.00;102154.63;6132643;23;20363;-83
2021/11/21 06:18:05;;;;;;;8.25;1.60;;;;;;;4.20;100.00;102159.19;6156714;23;20001;-84
2021/11/21 06:20:30;;;;;;;6.20;1.23;;;;;;;4.26;100.00;102165.91;6132223;23;20079;-83
2021/11/21 06:22:56;;;;;;;4.60;1.60;;;;;;;4.28;100.00;102167.50;6131660;23;20001;-84
2021/11/21 06:25:22;;;;;;;14.75;1.92;;;;;;;4.37;100.00;102171.41;6157444;23;20036;-84
2021/11/21 06:27:48;;;;;;;10.43;1.48;;;;;;;4.29;100.00;102171.91;6156810;23;20012;-83
2021/11/21 06:30:13;;;;;;;10.45;1.80;;;;;;;4.32;100.00;102166.38;6132349;23;20033;-84
2021/11/21 06:32:39;;;;;;;14.13;1.85;;;;;;;4.36;100.00;102170.53;6107877;23;20088;-84
2021/11/21 06:35:06;;;;;;;10.13;1.60;;;;;;;4.24;100.00;102175.81;6132116;23;20337;-84
2021/11/21 06:37:32;;;;;;;15.43;1.67;;;;;;;4.10;100.00;102171.38;6156371;23;20092;-84
2021/11/21 06:39:58;;;;;;;13.63;1.75;;;;;;;4.06;100.00;102177.88;6157137;23;20024;-84
2021/11/21 06:42:26;;;;;;;12.02;1.33;;;;;;;3.95;100.00;102179.41;6132576;23;20005;-83
2021/11/21 06:44:51;;;;;;;3.38;0.73;;;;;;;3.85;100.00;102167.63;6181354;23;20005;-86
2021/11/21 06:47:18;;;;;;;10.93;1.75;;;;;;;3.84;100.00;102173.06;6181097;23;20012;-83
2021/11/21 06:49:45;;;;;;;9.82;3.20;;;;;;;3.82;100.00;102178.47;6131783;23;20001;-83
2021/11/21 06:52:12;;;;;;;12.80;2.63;;;;;;;3.82;100.00;102183.78;6107749;23;20071;-83
2021/11/21 06:54:38;;;;;;;3.20;0.68;;;;;;;3.83;100.00;102166.00;6132186;23;20310;-82
2021/11/21 06:57:04;;;;;;;10.43;1.50;;;;;;;3.89;100.00;102179.81;6156299;23;20059;-83
2021/11/21 06:59:32;;;;;;;8.52;1.70;;;;;;;3.86;100.00;102189.75;6156857;23;20080;-83
2021/11/21 07:01:58;;;;;;;10.05;1.70;;;;;;;3.76;100.00;102181.53;6156475;23;20005;-84
2021/11/21 07:04:24;;;;;;;6.00;1.58;;;;;;;3.74;100.00;102180.75;6156846;23;20340;-83
2021/11/21 07:06:50;;;;;;;9.02;1.63;;;;;;;3.69;100.00;102173.06;6182562;23;20001;-83
2021/11/21 07:09:16;;;;;;;11.98;1.40;;;;;;;3.61;100.00;102180.69;6156690;23;20005;-84
2021/11/21 07:11:44;;;;;;;8.52;1.70;;;;;;;3.53;100.00;102186.47;6131360;23;20008;-85
2021/11/21 07:14:11;;;;;;;8.15;1.73;;;;;;;3.47;100.00;102184.19;6156327;23;20005;-83
2021/11/21 07:16:49;;;;;;;7.45;1.15;;;;;;;3.42;100.00;102188.94;6156737;23;20001;-83
2021/11/21 07:19:14;;;;;;;7.18;1.50;;;;;;;3.44;100.00;102202.13;6109774;23;20067;-84
2021/11/21 07:21:40;;;;;;;10.93;1.75;;;;;;;3.42;100.00;102206.72;6182593;23;20005;-83
2021/11/21 07:24:06;;;;;;;3.20;1.00;;;;;;;3.36;100.00;102204.41;6132953;23;20072;-83
2021/11/21 07:26:32;;;;;;;2.33;0.60;;;;;;;3.36;100.00;102207.94;6183385;23;20373;-84
2021/11/21 07:28:58;;;;;;;7.40;1.40;;;;;;;3.35;100.00;102200.91;6155613;23;20001;-82
2021/11/21 07:35:47;;;;;;;4.80;1.25;;;;;;;3.37;100.00;102209.63;6182127;23;20036;-83
2021/11/21 07:38:15;;;;;;;9.07;1.85;;;;;;;3.37;100.00;102196.34;6151871;23;20060;-84
2021/11/21 07:40:41;;;;;;;6.70;1.20;;;;;;;3.30;100.00;102193.19;6155494;23;20043;-84
2021/11/21 07:43:07;;;;;;;7.47;0.85;;;;;;;3.25;100.00;102191.75;6155446;23;20009;-83
2021/11/21 07:45:35;;;;;;;11.48;1.17;;;;;;;3.29;100.00;102207.44;6155950;23;20005;-84
2021/11/21 07:48:01;;;;;;;7.00;2.15;;;;;;;3.26;100.00;102207.63;6155936;23;20009;-83
2021/11/21 07:50:29;;;;;;;3.83;1.10;;;;;;;3.29;100.00;102209.25;6131379;23;20013;-83
2021/11/21 07:53:13;;;;;;;9.52;1.33;;;;;;;3.34;100.00;102220.47;6156399;23;20017;-82
2021/11/21 07:55:42;;;;;;;4.35;1.00;;;;;;;3.32;100.00;102225.00;6131234;23;20012;-83
2021/11/21 07:58:08;;;;;;;8.40;1.13;;;;;;;3.27;100.00;102224.44;6131350;23;20012;-83
2021/11/21 08:00:34;;;;;;;6.65;1.33;;;;;;;3.22;100.00;102230.00;6155399;23;20008;-82
2021/11/21 08:03:01;;;;;;;11.52;1.48;;;;;;;3.18;100.00;102235.63;6156166;23;20009;-83
2021/11/21 08:05:26;;;;;;;9.18;1.70;;;;;;;3.14;100.00;102236.75;6155753;23;20434;-84
2021/11/21 08:07:52;;;;;;;3.70;1.77;;;;;;;3.08;100.00;102246.78;6107036;23;20504;-83
2021/11/21 08:10:18;;;;;;;7.43;1.65;;;;;;;3.08;100.00;102241.47;6155673;23;20056;-83
2021/11/21 08:12:44;;;;;;;10.07;1.52;;;;;;;3.03;100.00;102248.88;6156447;23;20015;-83
2021/11/21 08:15:10;;;;;;;7.93;1.67;;;;;;;3.00;100.00;102241.06;6155341;23;20341;-82
2021/11/21 08:17:45;;;;;;;6.10;1.15;;;;;;;3.06;100.00;102246.03;6131072;23;20088;-82
2021/11/21 08:20:14;;;;;;;9.43;1.20;;;;;;;3.02;100.00;102231.22;6133121;23;20019;-89
2021/11/21 08:22:43;;;;;;;8.05;1.50;;;;;;;3.10;100.00;102233.44;6131318;23;20015;-88
2021/11/21 08:25:10;;;;;;;10.80;1.20;;;;;;;3.12;100.00;102235.97;6107404;23;20036;-90
2021/11/21 08:27:40;;;;;;;13.48;1.65;;;;;;;3.14;100.00;102231.44;6108003;23;20012;-90
2021/11/21 08:30:09;;;;;;;0.70;0.40;;;;;;;3.24;100.00;102256.53;6131202;23;20020;-91
2021/11/21 08:32:36;;;;;;;5.78;1.45;;;;;;;3.34;100.00;102256.84;6183037;23;20005;-83
2021/11/21 08:35:21;;;;;;;9.82;0.80;;;;;;;3.44;100.00;102248.22;6156520;23;20306;-83
2021/11/21 08:37:47;;;;;;;14.63;1.75;;;;;;;3.50;100.00;102244.31;6182369;23;20037;-82
2021/11/21 08:40:13;;;;;;;3.45;0.90;;;;;;;3.58;100.00;102257.16;6155620;23;20047;-84
2021/11/21 08:42:39;;;;;;;9.05;0.98;;;;;;;3.69;100.00;102260.00;6130018;23;20028;-83
2021/11/21 08:45:07;;;;;;;4.68;1.45;;;;;;;3.79;100.00;102277.13;6153882;23;20059;-85
2021/11/21 08:47:32;;;;;;;7.22;1.45;;;;;;;3.83;100.00;102277.78;6131208;23;20008;-84
2021/11/21 08:50:03;;;;;;;6.10;1.50;;;;;;;3.86;100.00;102269.59;6131032;23;20055;-84
2021/11/21 08:52:29;;;;;;;6.47;1.67;;;;;;;3.85;100.00;102276.72;6130811;23;20051;-84
2021/11/21 08:54:54;;;;;;;11.48;1.42;;;;;;;3.80;100.00;102281.47;6181479;23;20100;-83
2021/11/21 08:57:20;;;;;;;9.13;2.03;;;;;;;3.82;100.00;102282.25;6154905;23;20009;-83
2021/11/21 08:59:46;;;;;;;10.88;1.75;;;;;;;3.91;100.00;102296.78;6130620;23;20091;-84
2021/11/21 09:02:11;;;;;;;12.82;1.20;;;;;;;3.96;100.00;102289.38;6130690;23;20009;-84
2021/11/21 09:04:40;;;;;;;6.15;1.35;;;;;;;4.00;100.00;102292.72;6130680;23;20334;-84
2021/11/21 09:07:05;;;;;;;8.10;1.23;;;;;;;4.01;100.00;102289.94;6156080;23;20005;-85
2021/11/21 09:09:32;;;;;;;6.93;1.23;;;;;;;4.09;100.00;102292.13;6155027;23;20036;-86
2021/11/21 09:11:58;;;;;;;11.35;1.10;;;;;;;4.19;100.00;102299.44;6156024;23;20013;-83
2021/11/21 09:14:25;;;;;;;7.32;2.03;;;;;;;4.38;100.00;102292.94;6155822;23;20067;-83
2021/11/21 09:16:54;;;;;;;4.97;1.40;;;;;;;4.47;100.00;102296.81;6157570;23;20005;-83
2021/11/21 09:19:20;;;;;;;12.18;1.67;;;;;;;4.56;100.00;102296.25;6132303;23;20012;-84
2021/11/21 09:21:46;;;;;;;7.03;0.88;;;;;;;4.58;100.00;102297.00;6158096;23;20005;-84
2021/11/21 09:24:12;;;;;;;7.30;1.00;;;;;;;4.65;100.00;102302.78;6158289;23;20113;-84
2021/11/21 09:26:38;;;;;;;10.63;1.10;;;;;;;4.67;100.00;102308.88;6157982;23;20059;-87
2021/11/21 09:29:05;;;;;;;13.13;1.50;;;;;;;4.67;100.00;102301.72;6157867;23;20008;-84
2021/11/21 09:31:30;;;;;;;9.68;1.20;;;;;;;4.68;100.00;102299.91;6109395;23;20016;-84
2021/11/21 09:33:56;;;;;;;6.47;1.08;;;;;;;4.72;100.00;102299.63;6133826;23;20001;-86
2021/11/21 09:36:22;;;;;;;6.05;1.20;;;;;;;4.88;100.00;102306.63;6133637;23;20040;-85
2021/11/21 09:38:48;;;;;;;1.80;0.75;;;;;;;4.99;100.00;102310.25;6133516;23;20005;-84
2021/11/21 09:41:14;;;;;;;6.60;1.63;;;;;;;5.02;100.00;102303.88;6109103;23;20017;-87
2021/11/21 09:43:41;;;;;;;4.03;0.95;;;;;;;5.10;100.00;102314.03;6158245;23;20012;-83
2021/11/21 09:46:09;;;;;;;6.40;1.00;;;;;;;5.09;100.00;102305.19;6157878;23;20013;-83
2021/11/21 09:48:34;;;;;;;2.20;0.98;;;;;;;5.10;100.00;102309.56;6109273;23;20005;-84
2021/11/21 09:51:01;;;;;;;7.22;1.52;;;;;;;5.16;100.00;102311.84;6133251;23;20084;-88
2021/11/21 09:53:27;;;;;;;8.77;1.40;;;;;;;5.17;100.00;102320.69;6133150;23;20020;-84
2021/11/21 09:55:52;;;;;;;6.10;1.00;;;;;;;5.22;100.00;102321.22;6156623;23;20013;-86
2021/11/21 09:58:18;;;;;;;6.25;1.55;;;;;;;5.22;100.00;102319.41;6132927;23;20096;-85
2021/11/21 10:00:44;;;;;;;13.75;1.45;;;;;;;5.22;100.00;102322.06;6133570;23;20005;-85
2021/11/21 10:03:12;;;;;;;6.93;0.77;;;;;;;5.24;100.00;102325.50;6134003;23;20005;-83
2021/11/21 10:05:56;;;;;;;9.63;1.27;;;;;;;5.28;100.00;102326.13;6133259;23;20009;-84
2021/11/21 10:08:24;;;;;;;5.70;1.08;;;;;;;5.32;100.00;102329.44;6158941;23;20009;-86
2021/11/21 10:10:56;;;;;;;13.65;1.40;;;;;;;5.38;100.00;102326.38;6109022;23;20024;-84
2021/11/21 10:13:34;;;;;;;10.20;2.67;;;;;;;5.44;100.00;102332.16;6133401;23;20088;-84
2021/11/21 10:16:18;;;;;;;8.65;1.52;;;;;;;5.49;100.00;102334.50;6133568;23;20378;-84
2021/11/21 10:18:55;;;;;;;6.90;1.38;;;;;;;5.51;100.00;102335.28;6184897;23;20016;-85
2021/11/21 10:21:30;;;;;;;6.18;1.33;;;;;;;5.54;100.00;102343.06;6133753;23;20341;-85
2021/11/21 10:24:21;;;;;;;4.28;1.00;;;;;;;5.59;100.00;102340.09;6133911;23;20009;-85
2021/11/21 10:27:01;;;;;;;7.35;1.08;;;;;;;5.62;100.00;102348.72;6109137;23;20095;-84
2021/11/21 10:29:36;;;;;;;6.20;1.40;;;;;;;5.76;100.00;102346.94;6133564;23;20015;-84
2021/11/21 10:32:22;;;;;;;5.28;0.85;;;;;;;5.79;100.00;102352.91;6109830;23;20032;-84
2021/11/21 10:34:58;;;;;;;7.22;1.40;;;;;;;5.86;100.00;102356.00;6108915;23;20015;-86
2021/11/21 10:37:35;;;;;;;5.55;1.65;;;;;;;5.91;100.00;102351.22;6109018;23;20017;-85
2021/11/21 10:40:09;;;;;;;10.05;1.25;;;;;;;6.24;100.00;102364.03;6133640;23;20011;-85
2021/11/21 10:42:36;;;;;;;2.03;0.88;;;;;;;6.57;100.00;102366.13;6108970;23;20060;-84
2021/11/21 10:45:06;;;;;;;3.85;1.25;;;;;;;6.90;98.71;102363.78;6158366;23;20005;-86
2021/11/21 10:47:52;;;;;;;8.38;1.25;;;;;;;7.30;95.99;102363.50;6157847;23;20047;-86
2021/11/21 10:50:51;;;;;;;6.90;1.10;;;;;;;7.51;94.89;102374.41;6133269;23;20011;-86
2021/11/21 10:53:17;;;;;;;7.65;1.15;;;;;;;7.71;94.28;102371.09;6094376;23;20075;-85
2021/11/21 10:55:43;;;;;;;2.85;0.93;;;;;;;7.88;93.56;102375.97;6157312;23;20341;-84
2021/11/21 10:58:14;;;;;;;5.03;0.98;;;;;;;8.09;92.09;102386.00;6184056;23;20017;-86
2021/11/21 11:00:41;;;;;;;4.38;1.35;;;;;;;8.10;91.73;102385.06;6157694;23;20001;-85
2021/11/21 11:03:20;;;;;;;6.32;0.90;;;;;;;7.99;91.07;102393.94;6133587;23;20483;-87
2021/11/21 11:05:46;;;;;;;6.55;1.48;;;;;;;8.08;90.62;102397.72;6133259;23;20337;-84
2021/11/21 11:08:27;;;;;;;6.63;1.27;;;;;;;8.02;89.61;102393.69;6183484;23;19997;-84
2021/11/21 11:10:52;;;;;;;8.40;1.60;;;;;;;8.00;89.34;102400.13;6132838;23;20005;-85
2021/11/21 11:13:18;;;;;;;4.38;1.33;;;;;;;7.95;89.68;102392.44;6158073;23;20330;-85
2021/11/21 11:15:49;;;;;;;17.92;2.78;;;;;;;8.30;88.41;102392.34;6133299;23;20072;-87
2021/11/21 11:18:16;;;;;;;13.02;2.35;;;;;;;8.67;86.51;102392.16;6134330;23;20024;-86
2021/11/21 11:20:47;;;;;;;4.07;1.02;;;;;;;8.75;85.35;102378.13;6132743;23;20092;-86
2021/11/21 11:23:17;;;;;;;9.07;1.35;;;;;;;8.71;85.82;102390.09;6108903;23;20015;-85
2021/11/21 11:25:46;;;;;;;6.70;1.25;;;;;;;8.71;84.72;102388.25;6157730;23;20020;-84
2021/11/21 11:28:21;;;;;;;5.82;1.63;;;;;;;9.11;84.26;102403.78;6133105;23;20005;-86
2021/11/21 11:30:47;;;;;;;2.45;0.95;;;;;;;9.57;82.80;102404.47;6133117;23;20602;-86
2021/11/21 11:33:19;;;;;;;2.72;0.82;;;;;;;9.94;80.84;102404.88;6157355;23;20005;-85
2021/11/21 11:35:47;;;;;;;6.85;1.20;;;;;;;10.64;78.49;102399.75;6108228;23;20020;-84